Accueil
METAR-TAF:

METAR-TAF

Aéroports :

Newport, Vermont, États-Unis

latitude: 44-53-20N, longitude: 072-13-45W, altitude: 283 m

Observation

Le bulletin a été fait il y a 4 minutes, à 07:37 UTC
Vent 5 kt de ouest/nord-ouest
Température -2°C
Humidité 93%
Pression 1016 hPa
Visibilité: 4.8 km
Nuages épars à une hauteur de 1000 ft
Nuages fragmentés à une hauteur de 1500 ft
Ciel couvert à une hauteur de 2800 ft
neige faible

METAR: KEFK 170737Z AUTO 29005KT 3SM -SN SCT010 BKN015 OVC028 M02/M03 A3001 RMK AO2 T10181032

Heure: 02:41 (07:41 UTC)


TAF: absent

Observations et prévisions météorologiques de plus de 4000 aéroports (messages METAR et TAF).

Les stations disponibles sont représentées par des disques jaunes et rouges sur la carte.

Passer la souris dessus pour voir le nom de la station.

Cliquer dessus pour voir les observations et prévisions météorologiques.

Pour changer de carte: cliquez sur les boutons verts avec une croix noire pour zoomer, sur le bouton vert avec un tiret pour effectuer un zoom arrière, ou sur les flèches vertes pour les cartes adjacentes.


METAR-TAF: